Time;durP1;ratioP1;P1;durP2;ratioP2;P2;SDS_P1;SDS_P2;PMS_P1;PMS_P2;Temp;Humidity;BMP_temperature;BMP_pressure;BME280_temperature;BME280_humidity;BME280_pressure;Samples;Min_cycle;Max_cycle;Signal;HPM_P1;HPM_P2
2021/12/15 00:02:24;;;;;;;;;304.50;286.25;5.80;81.50;;;;;;5057973;28;8875;-74
2021/12/15 00:04:53;;;;;;;;;275.50;262.25;6.10;78.80;;;;;;5057718;28;8783;-74
2021/12/15 00:07:20;;;;;;;;;275.75;257.75;6.00;78.90;;;;;;5057736;28;9528;-74
2021/12/15 00:09:46;;;;;;;;;344.00;311.25;6.10;78.00;;;;;;5057651;28;8774;-74
2021/12/15 00:12:14;;;;;;;;;288.50;270.50;6.20;77.40;;;;;;5057863;28;8794;-74
2021/12/15 00:14:41;;;;;;;;;336.50;309.50;6.00;78.70;;;;;;5057607;28;8866;-74
2021/12/15 00:17:08;;;;;;;;;309.25;288.00;6.30;78.20;;;;;;5057513;28;8771;-74
2021/12/15 00:19:34;;;;;;;;;302.75;275.75;6.10;77.90;;;;;;5057659;28;8799;-74
2021/12/15 00:22:00;;;;;;;;;340.50;312.00;6.20;77.10;;;;;;5057381;28;8771;-74
2021/12/15 00:24:27;;;;;;;;;348.50;315.00;5.90;80.20;;;;;;5057384;28;8775;-71
2021/12/15 00:26:54;;;;;;;;;346.75;319.25;6.10;78.90;;;;;;5055727;28;8760;-74
2021/12/15 00:29:21;;;;;;;;;308.50;276.75;6.30;77.30;;;;;;5057320;28;8846;-75
2021/12/15 00:31:47;;;;;;;;;284.00;272.50;6.30;76.90;;;;;;5057118;28;8778;-74
2021/12/15 00:34:15;;;;;;;;;256.00;239.25;6.30;76.10;;;;;;5057442;28;8767;-74
2021/12/15 00:36:44;;;;;;;;;273.00;257.00;6.00;77.90;;;;;;5057372;28;8775;-74
2021/12/15 00:39:14;;;;;;;;;295.25;277.50;5.20;83.60;;;;;;5057358;28;9477;-73
2021/12/15 00:41:40;;;;;;;;;315.00;291.25;5.20;84.40;;;;;;5057090;28;8825;-74
2021/12/15 00:44:08;;;;;;;;;337.25;304.50;5.10;85.40;;;;;;5056949;28;8886;-74
2021/12/15 00:46:34;;;;;;;;;304.75;278.50;5.10;85.00;;;;;;5055733;28;8836;-74
2021/12/15 00:49:00;;;;;;;;;309.00;287.50;4.90;86.20;;;;;;5056910;28;8813;-73
2021/12/15 00:51:26;;;;;;;;;331.75;296.00;4.40;91.70;;;;;;5056923;28;8777;-74
2021/12/15 00:53:53;;;;;;;;;307.75;280.75;4.70;90.60;;;;;;5056665;28;8892;-73
2021/12/15 00:56:18;;;;;;;;;238.00;218.50;5.30;86.80;;;;;;5056943;28;8774;-74
2021/12/15 00:58:44;;;;;;;;;232.25;209.00;5.40;83.80;;;;;;5056692;28;8810;-73
2021/12/15 01:01:10;;;;;;;;;198.25;186.00;5.50;82.60;;;;;;5055680;28;8782;-73
2021/12/15 01:03:36;;;;;;;;;195.25;183.75;5.80;80.50;;;;;;5056552;28;9425;-74
2021/12/15 01:06:10;;;;;;;;;187.75;174.00;5.90;80.30;;;;;;5056323;28;8755;-73
2021/12/15 01:08:43;;;;;;;;;190.75;179.00;5.70;79.60;;;;;;5056589;28;8783;-73
2021/12/15 01:11:22;;;;;;;;;190.50;171.75;5.90;79.10;;;;;;5056538;28;8793;-71
2021/12/15 01:22:11;;;;;;;;;210.25;190.25;6.20;76.70;;;;;;5056419;28;8747;-72
2021/12/15 01:24:37;;;;;;;;;180.50;176.50;6.30;76.20;;;;;;5056524;28;8813;-73
2021/12/15 01:27:03;;;;;;;;;187.50;181.00;6.40;75.30;;;;;;5056708;28;8795;-74
2021/12/15 01:29:29;;;;;;;;;168.00;161.50;6.20;76.50;;;;;;5056214;28;8783;-73
2021/12/15 01:31:55;;;;;;;;;181.75;171.50;6.00;77.00;;;;;;5056436;28;8775;-73
2021/12/15 01:34:21;;;;;;;;;172.75;155.50;5.50;81.00;;;;;;5056109;28;9410;-74
2021/12/15 01:36:47;;;;;;;;;167.75;161.00;5.80;80.20;;;;;;5056015;28;8844;-73
2021/12/15 01:39:12;;;;;;;;;185.75;172.25;5.80;79.70;;;;;;5055912;28;8775;-73
2021/12/15 01:41:38;;;;;;;;;163.25;135.75;5.80;78.80;;;;;;5054945;28;8786;-74
2021/12/15 01:46:54;;;;;;;;;142.75;133.50;5.90;77.90;;;;;;5073914;28;9412;-73
2021/12/15 01:49:43;;;;;;;;;151.75;143.25;5.00;85.10;;;;;;5076072;28;8801;-73
2021/12/15 01:52:36;;;;;;;;;137.50;131.25;4.70;87.20;;;;;;5075673;28;8801;-73
2021/12/15 01:55:18;;;;;;;;;154.50;146.00;4.30;91.80;;;;;;5074815;28;8825;-73
2021/12/15 01:57:45;;;;;;;;;146.50;137.00;4.00;93.10;;;;;;5075222;28;9548;-74
2021/12/15 02:00:26;;;;;;;;;134.25;130.75;4.30;92.70;;;;;;5075575;28;8773;-72
2021/12/15 02:02:54;;;;;;;;;150.25;146.75;4.50;91.50;;;;;;5075600;28;8857;-73
2021/12/15 02:05:21;;;;;;;;;151.25;141.00;5.30;85.70;;;;;;5075496;28;8762;-73
2021/12/15 02:07:48;;;;;;;;;153.00;144.00;5.20;83.20;;;;;;5075321;28;8808;-73
2021/12/15 02:10:15;;;;;;;;;165.25;144.00;5.10;84.40;;;;;;5075216;28;8790;-73
2021/12/15 02:12:43;;;;;;;;;141.75;135.50;5.20;84.10;;;;;;5074287;28;8798;-73
2021/12/15 02:15:23;;;;;;;;;168.50;161.50;5.30;84.20;;;;;;5075575;28;8770;-73
2021/12/15 02:17:48;;;;;;;;;169.50;159.00;5.30;84.20;;;;;;5075235;28;8746;-72
2021/12/15 02:20:18;;;;;;;;;158.25;146.00;4.90;86.80;;;;;;5075548;28;8840;-73
2021/12/15 02:22:45;;;;;;;;;172.00;158.25;4.20;92.20;;;;;;5075092;28;8803;-73
2021/12/15 02:25:14;;;;;;;;;167.50;153.00;4.70;91.10;;;;;;5075073;28;8758;-73
2021/12/15 02:27:40;;;;;;;;;172.00;146.75;4.90;89.00;;;;;;5075304;28;8880;-74
2021/12/15 02:30:29;;;;;;;;;153.00;149.25;4.80;88.60;;;;;;5074966;28;8851;-73
2021/12/15 02:38:42;;;;;;;;;155.50;145.50;5.60;81.20;;;;;;5052914;28;8840;-73
2021/12/15 02:41:20;;;;;;;;;148.75;142.00;6.10;78.20;;;;;;5052858;28;9408;-73
2021/12/15 02:43:52;;;;;;;;;158.00;145.50;6.20;76.20;;;;;;5052790;28;8766;-73
2021/12/15 02:46:19;;;;;;;;;143.00;139.25;6.40;75.10;;;;;;5052705;28;8762;-73
2021/12/15 02:48:46;;;;;;;;;152.75;139.25;6.00;77.00;;;;;;5052595;28;8882;-72
2021/12/15 02:51:12;;;;;;;;;148.25;140.50;6.00;77.00;;;;;;5052689;28;8846;-73
2021/12/15 02:53:39;;;;;;;;;161.75;152.00;6.10;76.30;;;;;;5052473;28;8882;-73
2021/12/15 02:56:05;;;;;;;;;150.25;137.75;5.70;78.20;;;;;;5052608;28;8785;-73
2021/12/15 02:58:34;;;;;;;;;164.00;153.75;5.80;78.60;;;;;;5052486;28;8792;-72
2021/12/15 03:01:10;;;;;;;;;158.25;150.25;5.70;79.70;;;;;;5052514;28;8758;-73
2021/12/15 03:04:09;;;;;;;;;159.50;146.75;5.70;79.10;;;;;;5052520;28;8831;-73
2021/12/15 03:06:44;;;;;;;;;151.25;142.25;5.00;84.30;;;;;;5052071;28;8928;-73
2021/12/15 03:17:16;;;;;;;;;134.75;126.75;5.10;85.00;;;;;;5074466;28;8722;-73
2021/12/15 03:19:42;;;;;;;;;153.75;148.00;5.60;80.30;;;;;;5072347;28;8827;-73
2021/12/15 03:22:08;;;;;;;;;167.00;155.75;5.50;81.00;;;;;;5061684;28;8823;-72
2021/12/15 03:24:34;;;;;;;;;158.25;148.25;5.10;84.00;;;;;;5074098;28;9432;-73
2021/12/15 03:27:08;;;;;;;;;163.75;151.25;5.00;85.30;;;;;;5054208;28;8781;-73
2021/12/15 03:37:42;;;;;;;;;166.75;157.50;5.70;79.20;;;;;;5054448;28;8756;-73
2021/12/15 03:40:24;;;;;;;;;159.50;150.75;5.80;78.70;;;;;;5053997;28;8763;-72
2021/12/15 03:42:52;;;;;;;;;158.75;150.75;5.70;78.10;;;;;;5054135;28;8817;-72
2021/12/15 03:45:33;;;;;;;;;153.75;141.75;5.90;77.60;;;;;;5054259;28;8806;-73
2021/12/15 03:48:03;;;;;;;;;146.75;137.25;5.80;77.20;;;;;;5054571;28;8775;-71
2021/12/15 03:50:29;;;;;;;;;133.75;130.75;5.80;77.80;;;;;;5052938;28;8870;-73
2021/12/15 03:52:56;;;;;;;;;139.00;135.00;5.90;77.00;;;;;;5053886;28;8811;-72
2021/12/15 03:55:25;;;;;;;;;125.00;117.50;5.70;77.20;;;;;;5054196;28;8798;-73
2021/12/15 03:57:52;;;;;;;;;126.75;118.75;5.50;79.40;;;;;;5054156;28;9445;-73
2021/12/15 04:00:18;;;;;;;;;136.50;126.25;5.10;82.70;;;;;;5053931;28;8763;-73
2021/12/15 04:02:46;;;;;;;;;130.50;118.25;5.60;80.60;;;;;;5053901;28;8767;-73
2021/12/15 04:05:15;;;;;;;;;133.25;127.75;5.60;78.50;;;;;;5054159;28;9481;-73
2021/12/15 04:07:42;;;;;;;;;129.75;124.25;5.60;77.90;;;;;;5053656;28;8811;-73
2021/12/15 04:10:12;;;;;;;;;136.50;125.75;5.10;81.50;;;;;;5053874;28;8759;-73
2021/12/15 04:12:38;;;;;;;;;139.75;131.00;5.00;83.00;;;;;;5053653;28;8807;-73
2021/12/15 04:15:20;;;;;;;;;120.75;111.50;5.30;81.20;;;;;;5053829;28;8767;-73
2021/12/15 04:17:49;;;;;;;;;135.50;131.00;5.10;82.60;;;;;;5054002;28;8853;-73
2021/12/15 04:20:20;;;;;;;;;139.25;123.25;5.70;78.90;;;;;;5053698;28;8802;-73
2021/12/15 04:22:46;;;;;;;;;124.75;118.25;5.70;77.70;;;;;;5057502;28;8794;-73
2021/12/15 04:25:19;;;;;;;;;136.25;131.25;5.20;80.90;;;;;;5056427;28;8888;-73
2021/12/15 04:28:14;;;;;;;;;154.50;146.25;5.10;81.60;;;;;;5057420;28;8786;-73
2021/12/15 04:30:46;;;;;;;;;143.75;133.50;4.70;85.80;;;;;;5057038;28;8779;-73
2021/12/15 04:33:20;;;;;;;;;155.25;143.25;4.00;91.50;;;;;;5057476;28;9602;-72
2021/12/15 04:35:49;;;;;;;;;151.25;143.75;4.20;91.10;;;;;;5057193;28;8852;-73
2021/12/15 04:38:15;;;;;;;;;135.50;130.50;4.50;89.40;;;;;;5057135;28;8802;-72
2021/12/15 04:40:42;;;;;;;;;128.25;120.50;4.10;91.30;;;;;;5060447;28;8771;-73
2021/12/15 04:43:08;;;;;;;;;142.50;130.50;3.90;92.10;;;;;;5065992;28;8773;-73
2021/12/15 04:45:34;;;;;;;;;150.25;142.75;3.70;94.10;;;;;;5077077;28;9437;-73
2021/12/15 04:48:00;;;;;;;;;134.75;130.25;3.50;94.90;;;;;;5077052;28;8757;-73
2021/12/15 04:50:29;;;;;;;;;134.00;128.75;3.70;94.10;;;;;;5077229;28;9507;-73
2021/12/15 04:52:58;;;;;;;;;130.75;119.50;3.80;94.00;;;;;;5076813;28;8819;-73
2021/12/15 04:55:25;;;;;;;;;132.25;119.75;4.00;92.40;;;;;;5076856;28;8799;-72
2021/12/15 04:57:51;;;;;;;;;131.50;123.50;4.50;90.90;;;;;;5076807;28;8752;-73
2021/12/15 05:00:21;;;;;;;;;127.25;118.00;4.00;91.70;;;;;;5076727;28;8814;-73
2021/12/15 05:02:47;;;;;;;;;132.00;124.00;4.00;91.80;;;;;;5076804;28;8794;-73
2021/12/15 05:05:14;;;;;;;;;130.00;122.00;4.30;91.70;;;;;;5076845;28;8772;-72
2021/12/15 05:07:40;;;;;;;;;132.50;119.25;4.20;91.20;;;;;;5076363;28;8910;-73
2021/12/15 05:10:08;;;;;;;;;123.75;119.00;4.30;90.70;;;;;;5076503;28;8777;-73
2021/12/15 05:12:36;;;;;;;;;121.75;120.75;4.20;90.50;;;;;;5076484;28;8792;-72
2021/12/15 05:15:04;;;;;;;;;105.50;96.50;4.20;91.20;;;;;;5076770;28;8780;-72
2021/12/15 05:17:30;;;;;;;;;109.00;104.75;4.10;91.10;;;;;;5076364;28;8781;-72
2021/12/15 05:20:00;;;;;;;;;114.00;110.75;3.90;92.50;;;;;;5076875;28;8813;-72
2021/12/15 05:22:26;;;;;;;;;123.50;110.50;3.80;93.30;;;;;;5076582;28;8772;-72
2021/12/15 05:24:52;;;;;;;;;127.50;120.50;3.60;94.40;;;;;;5076365;28;8757;-72
2021/12/15 05:27:18;;;;;;;;;122.50;114.00;3.50;94.80;;;;;;5076584;28;8829;-71
2021/12/15 05:29:47;;;;;;;;;129.00;119.50;3.90;94.30;;;;;;5076521;28;8753;-71
2021/12/15 05:32:17;;;;;;;;;124.25;112.25;4.30;90.70;;;;;;5075283;28;8800;-72
2021/12/15 05:34:43;;;;;;;;;108.25;95.25;4.30;90.40;;;;;;5076408;28;8851;-71
2021/12/15 05:37:09;;;;;;;;;108.50;100.25;4.30;89.40;;;;;;5076082;28;8784;-72
2021/12/15 05:39:35;;;;;;;;;99.00;87.25;4.10;91.10;;;;;;5070060;28;8784;-70
2021/12/15 05:42:02;;;;;;;;;102.50;91.50;3.90;91.50;;;;;;5073218;28;8772;-71
2021/12/15 05:44:28;;;;;;;;;111.75;103.75;3.80;92.70;;;;;;5067668;28;8921;-72
2021/12/15 05:46:56;;;;;;;;;107.75;100.00;3.80;93.90;;;;;;5067247;28;8789;-71
2021/12/15 05:49:22;;;;;;;;;103.00;94.25;3.40;95.10;;;;;;5065380;28;8808;-76
2021/12/15 05:51:49;;;;;;;;;106.67;99.67;3.70;94.30;;;;;;5057712;28;8787;-72
2021/12/15 05:54:15;;;;;;;;;109.00;102.25;4.00;92.80;;;;;;5056609;28;8810;-72
2021/12/15 05:56:41;;;;;;;;;105.50;96.50;4.20;91.80;;;;;;5058431;28;8787;-73
2021/12/15 05:59:08;;;;;;;;;108.00;100.75;4.20;90.90;;;;;;5057367;28;8763;-71
2021/12/15 06:01:34;;;;;;;;;99.25;88.75;3.90;92.20;;;;;;5070042;28;8764;-73
2021/12/15 06:04:00;;;;;;;;;109.75;106.50;4.00;92.60;;;;;;5063165;28;8763;-71
2021/12/15 06:06:28;;;;;;;;;109.75;105.00;3.80;93.60;;;;;;5056947;28;8787;-66
2021/12/15 06:08:54;;;;;;;;;117.50;110.75;4.20;91.10;;;;;;5059329;28;8905;-70
2021/12/15 06:11:20;;;;;;;;;119.75;111.25;4.50;90.30;;;;;;5054939;28;8767;-68
2021/12/15 06:13:48;;;;;;;;;118.00;115.75;4.40;89.60;;;;;;5054988;28;8898;-68
2021/12/15 06:16:18;;;;;;;;;121.25;111.50;3.90;92.80;;;;;;5055203;28;8763;-68
2021/12/15 06:18:45;;;;;;;;;118.50;113.25;4.20;91.30;;;;;;5055421;28;8859;-68
2021/12/15 06:21:11;;;;;;;;;117.25;115.75;3.90;92.00;;;;;;5054162;28;8797;-68
2021/12/15 06:23:37;;;;;;;;;118.50;110.25;3.70;94.80;;;;;;5055072;28;8791;-68
2021/12/15 06:26:05;;;;;;;;;111.75;106.75;3.60;94.00;;;;;;5054975;28;8763;-68
2021/12/15 06:28:33;;;;;;;;;100.00;91.00;3.30;96.00;;;;;;5054028;28;8779;-67
2021/12/15 06:30:59;;;;;;;;;99.75;85.25;3.30;96.10;;;;;;5055071;28;8878;-68
2021/12/15 06:33:27;;;;;;;;;104.25;86.50;3.40;96.10;;;;;;5054850;28;8814;-68
2021/12/15 06:35:57;;;;;;;;;94.00;81.25;3.50;95.30;;;;;;5054970;28;8841;-68
2021/12/15 06:38:27;;;;;;;;;95.00;78.75;3.50;95.00;;;;;;5055018;28;8775;-68
2021/12/15 06:40:54;;;;;;;;;90.00;74.00;3.70;93.80;;;;;;5054922;28;8785;-68
2021/12/15 06:43:20;;;;;;;;;86.75;70.75;3.50;95.00;;;;;;5054974;28;9510;-70
2021/12/15 06:46:08;;;;;;;;;83.25;66.25;3.50;94.80;;;;;;5054895;28;8779;-70
2021/12/15 06:59:32;;;;;;;;;72.25;60.00;4.00;92.60;;;;;;5054623;28;8751;-71
2021/12/15 07:01:58;;;;;;;;;67.00;57.00;3.80;93.30;;;;;;5054423;28;8880;-72
2021/12/15 07:04:24;;;;;;;;;74.25;62.25;4.10;92.00;;;;;;5054460;28;8763;-71
2021/12/15 07:06:51;;;;;;;;;65.75;55.75;4.30;91.60;;;;;;5054159;28;9306;-71
2021/12/15 07:09:18;;;;;;;;;79.75;65.75;4.50;90.50;;;;;;5054612;28;8771;-71
2021/12/15 07:11:44;;;;;;;;;76.50;62.50;4.30;90.90;;;;;;5054278;28;8885;-71
2021/12/15 07:14:10;;;;;;;;;84.00;69.00;4.70;88.80;;;;;;5054688;28;8806;-72
2021/12/15 07:16:41;;;;;;;;;76.75;64.00;4.80;86.80;;;;;;5054271;28;8801;-70
2021/12/15 07:19:15;;;;;;;;;92.00;69.75;4.20;90.90;;;;;;5054424;28;8803;-70
2021/12/15 07:21:51;;;;;;;;;68.50;55.50;3.90;91.90;;;;;;5054499;28;9437;-69
2021/12/15 07:24:17;;;;;;;;;85.25;69.50;3.70;94.00;;;;;;5054537;28;8755;-69
2021/12/15 07:26:43;;;;;;;;;79.50;65.00;4.10;92.70;;;;;;5054063;28;8817;-69
2021/12/15 07:29:09;;;;;;;;;71.50;59.25;4.40;90.60;;;;;;5053928;28;8771;-69
2021/12/15 07:31:36;;;;;;;;;73.50;58.50;4.20;91.30;;;;;;5054274;28;8791;-69
2021/12/15 07:34:02;;;;;;;;;67.25;55.00;3.90;92.80;;;;;;5053970;28;8834;-69
2021/12/15 07:36:28;;;;;;;;;71.25;59.50;4.00;92.40;;;;;;5054130;28;8770;-70
2021/12/15 07:38:55;;;;;;;;;67.25;55.75;3.60;94.40;;;;;;5054339;28;8779;-68
2021/12/15 07:41:30;;;;;;;;;68.50;57.00;3.70;94.40;;;;;;5054036;28;8799;-69
2021/12/15 07:44:02;;;;;;;;;43.50;39.50;3.70;94.50;;;;;;5054174;28;8785;-64
2021/12/15 07:46:29;;;;;;;;;41.75;40.75;3.40;96.60;;;;;;5053983;28;8876;-64
2021/12/15 07:48:55;;;;;;;;;33.75;33.00;3.20;97.90;;;;;;5054139;28;8884;-64
2021/12/15 07:51:21;;;;;;;;;63.75;51.50;3.10;98.50;;;;;;5054245;28;9538;-64
2021/12/15 07:53:47;;;;;;;;;58.50;49.00;3.10;99.90;;;;;;5054201;28;8909;-65
2021/12/15 07:56:13;;;;;;;;;55.50;47.75;3.60;97.30;;;;;;5055632;28;8763;-65
2021/12/15 07:58:39;;;;;;;;;54.75;43.25;3.50;97.50;;;;;;5057972;28;8798;-66
2021/12/15 08:01:06;;;;;;;;;51.25;47.00;3.50;97.00;;;;;;5058273;28;8882;-65
2021/12/15 08:03:36;;;;;;;;;47.50;42.75;3.50;97.50;;;;;;5057904;28;8783;-64
2021/12/15 08:06:02;;;;;;;;;43.00;39.00;3.50;97.30;;;;;;5057671;28;8861;-64
2021/12/15 08:08:29;;;;;;;;;52.75;45.75;3.40;97.00;;;;;;5057767;28;8774;-64
2021/12/15 08:10:57;;;;;;;;;63.00;54.00;3.30;99.00;;;;;;5057936;28;8795;-64
2021/12/15 08:13:31;;;;;;;;;60.25;51.25;3.40;97.90;;;;;;5057894;28;8917;-66
2021/12/15 08:15:58;;;;;;;;;58.00;51.00;3.70;96.90;;;;;;5057750;28;9479;-63
2021/12/15 08:18:24;;;;;;;;;46.50;40.25;3.60;97.10;;;;;;5057773;28;8801;-64
2021/12/15 08:20:51;;;;;;;;;52.00;45.50;3.40;97.40;;;;;;5057530;28;8767;-64
2021/12/15 08:23:18;;;;;;;;;49.25;44.75;3.00;99.90;;;;;;5057505;28;8871;-64
2021/12/15 08:25:44;;;;;;;;;59.50;48.75;2.90;99.80;;;;;;5057598;28;8867;-63
2021/12/15 08:28:11;;;;;;;;;53.75;47.75;3.20;99.90;;;;;;5057214;28;8775;-64
2021/12/15 08:30:38;;;;;;;;;58.75;49.50;3.00;99.90;;;;;;5057288;28;8905;-65
2021/12/15 08:33:08;;;;;;;;;56.50;50.25;3.00;99.90;;;;;;5057077;28;8832;-64
2021/12/15 08:35:38;;;;;;;;;38.50;37.50;3.30;98.20;;;;;;5063383;28;8765;-63
2021/12/15 08:38:06;;;;;;;;;62.75;53.00;2.90;99.90;;;;;;5077235;28;8769;-69
2021/12/15 08:40:32;;;;;;;;;53.75;48.75;2.80;99.90;;;;;;5077216;28;8752;-67
2021/12/15 08:42:59;;;;;;;;;63.25;54.75;3.20;99.80;;;;;;5077053;28;8803;-67
2021/12/15 08:45:27;;;;;;;;;59.50;46.50;2.90;99.90;;;;;;5077392;28;8780;-67
2021/12/15 08:47:55;;;;;;;;;66.25;55.75;2.90;99.90;;;;;;5076851;28;8807;-67
2021/12/15 08:50:29;;;;;;;;;65.00;55.75;2.90;99.90;;;;;;5077310;28;8792;-68
2021/12/15 08:52:56;;;;;;;;;71.00;58.25;2.90;99.90;;;;;;5076850;28;8824;-68
2021/12/15 08:55:23;;;;;;;;;66.75;57.25;3.60;98.60;;;;;;5077259;28;9405;-68
2021/12/15 08:57:52;;;;;;;;;75.25;61.50;4.10;95.20;;;;;;5076905;28;8756;-68
2021/12/15 09:00:20;;;;;;;;;75.25;61.75;4.40;92.70;;;;;;5076743;28;8764;-67
2021/12/15 09:02:46;;;;;;;;;74.25;62.25;4.80;90.10;;;;;;5075474;28;8781;-67
2021/12/15 09:05:13;;;;;;;;;66.50;57.25;5.10;87.00;;;;;;5074364;28;8769;-67
2021/12/15 09:07:43;;;;;;;;;75.25;62.25;5.30;85.10;;;;;;5074036;28;8788;-66
2021/12/15 09:10:10;;;;;;;;;81.50;61.25;5.80;81.10;;;;;;5072986;28;8757;-66
2021/12/15 09:12:38;;;;;;;;;69.50;53.75;6.10;79.60;;;;;;5075376;28;8800;-66
2021/12/15 09:15:07;;;;;;;;;59.25;50.00;5.50;79.90;;;;;;5075418;28;8765;-68
2021/12/15 09:17:33;;;;;;;;;52.75;46.00;4.50;88.70;;;;;;5075378;28;8765;-66
2021/12/15 09:19:59;;;;;;;;;50.50;42.75;3.60;94.70;;;;;;5075464;28;8819;-68
2021/12/15 09:22:25;;;;;;;;;39.75;38.75;3.30;97.00;;;;;;5074938;28;8811;-65
2021/12/15 09:24:51;;;;;;;;;53.25;47.75;3.40;97.70;;;;;;5075380;28;8950;-70
2021/12/15 09:27:16;;;;;;;;;59.75;50.75;3.10;99.50;;;;;;5075168;28;8753;-71
2021/12/15 09:29:42;;;;;;;;;50.25;45.75;3.00;99.90;;;;;;5075682;28;8771;-70
2021/12/15 09:32:08;;;;;;;;;54.25;49.00;3.00;99.90;;;;;;5073110;28;8854;-74
2021/12/15 09:34:36;;;;;;;;;48.50;43.25;2.90;99.90;;;;;;5074948;28;8756;-73
2021/12/15 09:37:04;;;;;;;;;48.00;44.25;2.90;99.90;;;;;;5074878;28;9565;-72
2021/12/15 09:39:31;;;;;;;;;55.00;48.25;2.70;99.90;;;;;;5074810;28;8812;-74
2021/12/15 09:41:59;;;;;;;;;54.75;48.00;2.80;99.90;;;;;;5075852;28;9519;-74
2021/12/15 09:44:27;;;;;;;;;51.00;44.75;3.20;99.90;;;;;;5076326;28;8756;-74
2021/12/15 10:03:55;;;;;;;;;55.75;46.00;3.60;95.20;;;;;;5033177;28;8767;-67
2021/12/15 10:06:30;;;;;;;;;45.00;42.75;3.50;97.00;;;;;;5033363;28;8830;-68
2021/12/15 10:11:54;;;;;;;;;31.25;31.25;3.40;95.80;;;;;;5033470;28;9417;-66
2021/12/15 10:19:56;;;;;;;;;43.75;41.00;3.30;98.30;;;;;;5032890;28;8803;-75
2021/12/15 10:22:37;;;;;;;;;45.00;42.50;3.20;96.50;;;;;;5040825;28;8790;-70
2021/12/15 10:25:14;;;;;;;;;47.00;43.50;3.40;95.80;;;;;;5074314;28;8772;-73
2021/12/15 10:27:48;;;;;;;;;40.50;39.50;3.70;93.90;;;;;;5075127;28;9438;-70
2021/12/15 10:30:26;;;;;;;;;46.75;43.25;3.60;94.80;;;;;;5075047;28;8832;-71
2021/12/15 10:33:02;;;;;;;;;34.75;34.75;3.50;95.80;;;;;;5074690;28;8915;-70
2021/12/15 10:35:38;;;;;;;;;39.50;37.75;3.70;94.30;;;;;;5074537;28;8749;-72
2021/12/15 10:38:15;;;;;;;;;41.00;40.50;3.70;94.30;;;;;;5074456;28;8788;-71
2021/12/15 10:41:07;;;;;;;;;52.00;46.25;3.60;94.40;;;;;;5074760;28;8787;-72
2021/12/15 10:43:40;;;;;;;;;44.50;42.25;3.50;94.50;;;;;;5054896;28;8770;-70
2021/12/15 10:46:20;;;;;;;;;53.25;46.50;3.80;93.80;;;;;;5054813;28;8782;-73
2021/12/15 10:48:56;;;;;;;;;56.50;46.75;3.60;93.30;;;;;;5054913;28;8837;-74
2021/12/15 10:51:36;;;;;;;;;55.75;47.50;3.40;95.60;;;;;;5054578;28;8832;-72
2021/12/15 10:54:34;;;;;;;;;56.25;49.75;3.90;93.70;;;;;;5054951;28;8810;-74
2021/12/15 10:57:15;;;;;;;;;63.50;54.50;3.80;94.10;;;;;;5073947;28;8788;-75
2021/12/15 10:59:48;;;;;;;;;60.00;51.25;3.60;94.00;;;;;;5074922;28;8760;-73
2021/12/15 11:02:32;;;;;;;;;57.00;50.25;3.70;94.30;;;;;;5074800;28;9453;-76
2021/12/15 11:05:15;;;;;;;;;48.75;44.75;4.40;92.40;;;;;;5074139;28;8759;-75
2021/12/15 11:07:44;;;;;;;;;49.75;45.50;4.50;90.00;;;;;;5072837;28;8869;-76
2021/12/15 11:10:31;;;;;;;;;46.50;42.50;4.40;89.10;;;;;;5054439;28;8817;-74
2021/12/15 11:13:08;;;;;;;;;62.75;53.25;4.00;91.70;;;;;;5054378;28;8814;-77
2021/12/15 11:15:40;;;;;;;;;60.75;50.75;4.30;91.80;;;;;;5054368;28;8789;-75
2021/12/15 11:18:23;;;;;;;;;54.25;48.00;4.40;90.60;;;;;;5054611;28;9503;-75
2021/12/15 11:20:55;;;;;;;;;46.00;42.00;4.20;91.50;;;;;;5054283;28;8759;-75
2021/12/15 11:23:26;;;;;;;;;57.50;49.75;4.10;91.50;;;;;;5065275;28;8752;-76
2021/12/15 11:25:58;;;;;;;;;45.75;43.75;3.80;94.10;;;;;;5073418;28;8788;-75
2021/12/15 11:28:30;;;;;;;;;50.25;45.75;4.00;93.80;;;;;;5074655;28;9443;-75
2021/12/15 11:30:58;;;;;;;;;46.50;39.00;3.80;94.60;;;;;;5072663;28;8781;-70
2021/12/15 11:33:29;;;;;;;;;49.75;45.50;3.80;95.00;;;;;;5072902;28;8826;-71
2021/12/15 11:36:04;;;;;;;;;62.25;51.00;3.50;96.90;;;;;;5074296;28;8768;-71
2021/12/15 11:38:40;;;;;;;;;52.50;47.25;3.90;95.90;;;;;;5074277;28;8895;-68
2021/12/15 11:41:30;;;;;;;;;50.25;43.75;4.10;94.70;;;;;;5073866;28;8784;-69
2021/12/15 11:44:05;;;;;;;;;51.00;47.00;4.20;94.20;;;;;;5074161;28;8796;-72
2021/12/15 11:46:35;;;;;;;;;45.50;42.25;3.90;94.80;;;;;;5074139;28;8764;-70
2021/12/15 11:49:05;;;;;;;;;61.75;52.00;4.00;95.10;;;;;;5074524;28;8800;-69
2021/12/15 11:51:39;;;;;;;;;61.50;50.00;3.90;95.10;;;;;;5073868;28;8776;-72
2021/12/15 11:54:22;;;;;;;;;65.75;50.00;4.40;92.70;;;;;;5073728;28;8928;-70
2021/12/15 11:57:00;;;;;;;;;64.75;53.25;4.40;92.70;;;;;;5073903;28;8789;-70
2021/12/15 11:59:36;;;;;;;;;57.75;48.00;4.20;93.40;;;;;;5074030;28;8851;-68
2021/12/15 12:02:24;;;;;;;;;66.50;54.25;4.20;93.90;;;;;;5074102;28;9500;-66
2021/12/15 12:04:52;;;;;;;;;69.25;58.25;4.40;93.80;;;;;;5074037;28;8760;-68
2021/12/15 12:08:14;;;;;;;;;69.25;56.50;4.40;93.80;;;;;;5073725;28;8804;-67
2021/12/15 12:10:52;;;;;;;;;34.50;31.00;4.20;94.10;;;;;;5051754;28;9425;-67
2021/12/15 12:13:26;;;;;;;;;60.25;52.25;4.40;93.50;;;;;;5051494;28;8816;-67
2021/12/15 12:15:56;;;;;;;;;59.00;50.25;3.80;96.30;;;;;;5051717;28;8764;-67
2021/12/15 12:18:25;;;;;;;;;64.00;55.25;4.00;96.30;;;;;;5051569;28;8852;-67
2021/12/15 12:20:57;;;;;;;;;69.50;56.75;4.10;95.90;;;;;;5051688;28;8777;-66
2021/12/15 12:23:26;;;;;;;;;58.75;46.00;4.50;94.10;;;;;;5051654;28;8780;-67
2021/12/15 12:25:56;;;;;;;;;65.50;53.00;4.40;93.70;;;;;;5049677;28;8764;-67
2021/12/15 12:28:28;;;;;;;;;63.75;54.75;4.30;94.40;;;;;;5051643;28;8861;-67
2021/12/15 12:31:28;;;;;;;;;75.00;61.00;4.10;96.50;;;;;;5051616;28;8760;-67
2021/12/15 12:33:54;;;;;;;;;66.75;55.75;4.40;94.40;;;;;;4992254;28;8818;-68
2021/12/15 12:36:30;;;;;;;;;66.25;55.25;4.20;95.50;;;;;;4992120;28;8805;-67
2021/12/15 12:39:05;;;;;;;;;73.75;60.75;4.10;96.50;;;;;;4992097;28;8787;-67
2021/12/15 12:41:38;;;;;;;;;71.25;60.00;4.30;95.30;;;;;;4992673;28;8794;-68
2021/12/15 12:44:06;;;;;;;;;68.75;58.25;4.30;95.40;;;;;;5000931;28;8788;-67
2021/12/15 12:46:44;;;;;;;;;75.75;61.50;4.40;95.30;;;;;;5014958;28;8772;-66
2021/12/15 12:49:26;;;;;;;;;78.75;61.50;4.10;95.20;;;;;;5015027;28;8805;-67
2021/12/15 13:00:57;;;;;;;;;71.25;58.25;4.50;93.50;;;;;;5014879;28;8769;-71
2021/12/15 13:03:23;;;;;;;;;81.75;64.75;4.20;94.80;;;;;;5011975;28;9473;-71
2021/12/15 13:06:07;;;;;;;;;80.00;65.00;4.30;94.80;;;;;;5014186;28;8807;-71
2021/12/15 13:08:50;;;;;;;;;77.25;64.00;4.40;94.10;;;;;;5019756;28;8780;-71
2021/12/15 13:11:19;;;;;;;;;80.00;64.50;4.60;93.10;;;;;;5067447;28;8884;-71
2021/12/15 13:13:54;;;;;;;;;82.25;66.50;4.50;93.10;;;;;;5076700;28;8800;-71
2021/12/15 13:16:26;;;;;;;;;82.00;68.00;4.10;95.40;;;;;;5076626;28;8752;-71
2021/12/15 13:19:00;;;;;;;;;98.75;83.25;4.20;94.90;;;;;;5076300;28;8800;-71
2021/12/15 13:22:04;;;;;;;;;95.00;75.75;4.10;96.10;;;;;;5076408;28;8841;-71
2021/12/15 13:30:48;;;;;;;;;111.50;107.25;4.80;92.20;;;;;;5056338;28;8736;-71
2021/12/15 13:33:34;;;;;;;;;112.75;110.50;4.50;93.30;;;;;;5056359;28;9508;-71
2021/12/15 13:36:07;;;;;;;;;108.00;103.75;4.00;96.80;;;;;;5056739;28;8771;-71
2021/12/15 13:38:47;;;;;;;;;114.75;107.50;4.00;97.60;;;;;;5055483;28;8825;-71
2021/12/15 13:41:28;;;;;;;;;115.25;111.50;4.00;97.80;;;;;;5055683;28;8759;-71
2021/12/15 13:43:55;;;;;;;;;123.75;117.75;4.10;98.00;;;;;;5055865;28;8798;-73
2021/12/15 13:46:24;;;;;;;;;131.25;120.75;4.30;96.00;;;;;;5055856;28;8801;-71
2021/12/15 13:49:04;;;;;;;;;140.50;118.75;4.30;96.50;;;;;;5074527;28;8889;-71
2021/12/15 13:52:09;;;;;;;;;118.00;111.25;4.30;96.70;;;;;;5075821;28;8868;-71
2021/12/15 13:54:35;;;;;;;;;140.25;127.75;4.30;97.20;;;;;;5055354;28;8790;-72
2021/12/15 13:57:13;;;;;;;;;143.50;134.00;4.50;96.00;;;;;;5055920;28;8797;-71
2021/12/15 13:59:55;;;;;;;;;123.25;120.75;4.80;94.30;;;;;;5055233;28;8852;-72
2021/12/15 14:02:57;;;;;;;;;128.25;124.50;5.20;92.40;;;;;;5055595;28;8901;-65
2021/12/15 14:05:28;;;;;;;;;131.00;128.00;5.70;89.10;;;;;;5055292;28;8864;-70
2021/12/15 14:08:15;;;;;;;;;130.25;125.00;5.80;86.90;;;;;;5054767;28;8823;-73
2021/12/15 14:10:44;;;;;;;;;125.50;118.25;5.90;85.40;;;;;;5055442;28;8783;-68
2021/12/15 14:13:11;;;;;;;;;121.75;113.50;6.10;83.70;;;;;;5055200;28;8782;-68
2021/12/15 14:15:36;;;;;;;;;128.50;118.75;5.70;87.60;;;;;;5055159;28;8779;-64
2021/12/15 14:18:20;;;;;;;;;119.25;114.25;5.80;87.30;;;;;;5055252;28;8778;-64
2021/12/15 14:21:17;;;;;;;;;116.50;111.00;5.50;90.10;;;;;;5054889;28;8799;-64